Time;durP1;ratioP1;P1;durP2;ratioP2;P2;SDS_P1;SDS_P2;PMS_P1;PMS_P2;Temp;Humidity;BMP_temperature;BMP_pressure;BME280_temperature;BME280_humidity;BME280_pressure;Samples;Min_cycle;Max_cycle;Signal;HPM_P1;HPM_P2
2024/02/10 00:02:06;;;;;;;19.40;9.77;;;10.40;99.90;;;;;;5075874;28;20107;-70
2024/02/10 00:04:32;;;;;;;25.90;10.75;;;10.40;99.90;;;;;;5074750;28;20032;-69
2024/02/10 00:06:59;;;;;;;16.17;8.55;;;10.40;99.90;;;;;;5075892;28;20418;-69
2024/02/10 00:09:24;;;;;;;16.80;9.05;;;10.40;99.90;;;;;;5076013;28;20020;-70
2024/02/10 00:11:50;;;;;;;16.25;8.50;;;10.30;99.90;;;;;;5075158;28;20090;-69
2024/02/10 00:14:18;;;;;;;14.80;8.88;;;10.40;99.90;;;;;;5075619;28;20039;-69
2024/02/10 00:16:44;;;;;;;16.35;8.52;;;10.40;99.90;;;;;;5075615;28;20485;-69
2024/02/10 00:19:10;;;;;;;22.42;10.82;;;10.40;99.90;;;;;;5075634;28;20059;-69
2024/02/10 00:21:36;;;;;;;20.80;9.55;;;10.40;99.90;;;;;;5075409;28;20457;-69
2024/02/10 00:24:02;;;;;;;18.45;9.70;;;10.50;99.90;;;;;;5075653;28;20509;-69
2024/02/10 00:26:28;;;;;;;18.02;9.30;;;10.50;99.90;;;;;;5075428;28;20028;-69
2024/02/10 00:28:55;;;;;;;15.75;9.50;;;10.60;99.90;;;;;;5075652;28;20029;-69
2024/02/10 00:31:23;;;;;;;19.20;8.65;;;10.50;99.90;;;;;;5075371;28;20429;-70
2024/02/10 00:33:50;;;;;;;19.88;9.48;;;10.60;99.90;;;;;;5075275;28;20024;-69
2024/02/10 00:36:17;;;;;;;15.15;8.05;;;10.60;99.90;;;;;;5074055;28;20119;-69
2024/02/10 00:38:43;;;;;;;21.25;8.45;;;10.60;99.90;;;;;;5074277;28;20021;-69
2024/02/10 00:41:11;;;;;;;14.70;7.93;;;10.60;99.90;;;;;;5075336;28;20051;-69
2024/02/10 00:43:42;;;;;;;13.45;8.27;;;10.70;99.90;;;;;;5075124;28;20048;-68
2024/02/10 00:46:10;;;;;;;13.65;7.47;;;10.70;99.90;;;;;;5075216;28;20055;-68
2024/02/10 00:48:37;;;;;;;12.13;7.47;;;10.60;99.90;;;;;;5075047;28;20028;-68
2024/02/10 00:51:05;;;;;;;14.38;7.88;;;10.60;99.90;;;;;;5075035;28;20025;-68
2024/02/10 00:53:32;;;;;;;13.45;7.38;;;10.60;99.90;;;;;;5074988;28;20481;-69
2024/02/10 00:55:58;;;;;;;15.18;7.90;;;10.70;99.90;;;;;;5075113;28;20048;-68
2024/02/10 00:58:24;;;;;;;16.90;7.85;;;10.60;99.90;;;;;;5074882;28;20106;-69
2024/02/10 01:00:50;;;;;;;11.30;7.43;;;10.60;99.90;;;;;;5074766;28;20025;-69
2024/02/10 01:03:16;;;;;;;13.85;7.38;;;10.50;99.90;;;;;;5074975;28;20398;-69
2024/02/10 01:05:42;;;;;;;14.88;7.70;;;10.50;99.90;;;;;;5074603;28;20020;-69
2024/02/10 01:08:08;;;;;;;11.55;7.65;;;10.50;99.90;;;;;;5074869;28;20028;-69
2024/02/10 01:10:34;;;;;;;14.93;7.43;;;10.50;99.90;;;;;;5074694;28;20031;-69
2024/02/10 01:13:03;;;;;;;14.30;7.97;;;10.50;99.90;;;;;;5074571;28;20017;-69
2024/02/10 01:15:32;;;;;;;15.73;9.98;;;10.40;99.90;;;;;;5074429;28;20112;-68
2024/02/10 01:18:00;;;;;;;18.73;12.52;;;10.40;99.90;;;;;;5074511;28;20025;-69
2024/02/10 01:20:26;;;;;;;24.70;14.15;;;10.40;99.90;;;;;;5074453;28;20371;-69
2024/02/10 01:22:51;;;;;;;25.25;14.60;;;10.50;99.90;;;;;;5074583;28;20032;-69
2024/02/10 01:25:17;;;;;;;26.35;14.68;;;10.50;99.90;;;;;;5073259;28;20024;-69
2024/02/10 01:27:44;;;;;;;27.63;14.38;;;10.50;99.90;;;;;;5074265;28;20031;-69
2024/02/10 01:30:10;;;;;;;23.65;13.02;;;10.40;99.90;;;;;;5074185;28;20028;-69
2024/02/10 01:32:36;;;;;;;25.95;14.27;;;10.40;99.90;;;;;;5074384;28;20532;-69
2024/02/10 01:35:03;;;;;;;25.42;12.52;;;10.40;99.90;;;;;;5074110;28;20033;-69
2024/02/10 01:37:30;;;;;;;17.88;11.27;;;10.30;99.90;;;;;;5074167;28;20075;-69
2024/02/10 01:39:55;;;;;;;18.75;11.27;;;10.30;99.90;;;;;;5073058;28;20123;-69
2024/02/10 01:42:27;;;;;;;13.70;9.32;;;10.30;99.90;;;;;;5073751;28;20059;-69
2024/02/10 01:44:52;;;;;;;17.98;10.07;;;10.30;99.90;;;;;;5073589;28;20044;-69
2024/02/10 01:47:20;;;;;;;20.98;12.45;;;10.30;99.90;;;;;;5074001;28;20382;-70
2024/02/10 01:49:45;;;;;;;22.88;13.32;;;10.20;99.90;;;;;;5073816;28;20486;-69
2024/02/10 01:52:12;;;;;;;31.73;14.88;;;10.20;99.90;;;;;;5073795;28;20078;-69
2024/02/10 01:54:39;;;;;;;30.88;17.90;;;10.20;99.90;;;;;;5073442;28;20024;-69
2024/02/10 01:57:06;;;;;;;23.08;12.98;;;10.20;99.90;;;;;;5073778;28;20478;-69
2024/02/10 01:59:35;;;;;;;23.20;9.48;;;10.10;99.90;;;;;;5072359;28;20055;-69
2024/02/10 02:02:03;;;;;;;16.00;9.00;;;10.20;99.90;;;;;;5073449;28;20081;-69
2024/02/10 02:04:31;;;;;;;17.88;10.05;;;10.20;99.90;;;;;;5073474;28;20078;-69
2024/02/10 02:07:00;;;;;;;15.73;9.80;;;10.20;99.90;;;;;;5073531;28;20443;-69
2024/02/10 02:09:27;;;;;;;16.70;10.45;;;10.20;99.90;;;;;;5073534;28;20036;-69
2024/02/10 02:11:53;;;;;;;15.70;9.05;;;10.20;99.90;;;;;;5073410;28;20017;-70
2024/02/10 02:14:18;;;;;;;16.85;10.02;;;10.20;99.90;;;;;;5073820;28;20474;-69
2024/02/10 02:16:46;;;;;;;17.10;9.05;;;10.20;99.90;;;;;;5073388;28;20035;-69
2024/02/10 02:19:14;;;;;;;13.70;9.52;;;10.20;99.90;;;;;;5074004;28;20040;-69
2024/02/10 02:21:42;;;;;;;14.80;9.05;;;10.10;99.90;;;;;;5072206;28;20540;-68
2024/02/10 02:24:07;;;;;;;15.43;9.20;;;10.10;99.90;;;;;;5073263;28;20038;-69
2024/02/10 02:26:33;;;;;;;15.80;10.05;;;10.10;99.90;;;;;;5073346;28;20103;-69
2024/02/10 02:28:59;;;;;;;19.88;13.02;;;10.10;99.90;;;;;;5073166;28;20035;-68
2024/02/10 02:31:25;;;;;;;23.40;13.32;;;10.10;99.90;;;;;;5073314;28;20021;-69
2024/02/10 02:33:53;;;;;;;17.15;11.80;;;10.10;99.90;;;;;;5073128;28;20029;-69
2024/02/10 02:36:19;;;;;;;14.30;9.20;;;10.20;99.90;;;;;;5072743;28;20039;-69
2024/02/10 02:38:45;;;;;;;13.05;7.63;;;10.10;99.90;;;;;;5073134;28;20017;-69
2024/02/10 02:41:11;;;;;;;16.67;9.20;;;10.20;99.90;;;;;;5073172;28;20364;-69
2024/02/10 02:43:36;;;;;;;17.05;9.48;;;10.20;99.90;;;;;;5071687;28;20047;-68
2024/02/10 02:46:03;;;;;;;15.52;10.52;;;10.20;99.90;;;;;;5073203;28;20045;-69
2024/02/10 02:48:29;;;;;;;14.27;9.45;;;10.20;99.90;;;;;;5073059;28;20078;-68
2024/02/10 02:50:55;;;;;;;15.88;8.88;;;10.20;99.90;;;;;;5073260;28;20028;-69
2024/02/10 02:53:25;;;;;;;16.25;9.45;;;10.10;99.90;;;;;;5072981;28;20021;-70
2024/02/10 02:55:51;;;;;;;14.25;9.70;;;10.10;99.90;;;;;;5073051;28;20021;-69
2024/02/10 02:58:18;;;;;;;12.13;9.00;;;10.10;99.90;;;;;;5071942;28;20482;-70
2024/02/10 03:00:47;;;;;;;14.23;9.63;;;10.10;99.90;;;;;;5073192;28;20024;-69
2024/02/10 03:03:14;;;;;;;16.58;10.88;;;10.10;99.90;;;;;;5072878;28;20111;-70
2024/02/10 03:05:41;;;;;;;21.20;13.98;;;10.10;99.90;;;;;;5071683;28;20097;-69
2024/02/10 03:08:07;;;;;;;15.68;11.77;;;10.10;99.90;;;;;;5072994;28;20494;-69
2024/02/10 03:10:33;;;;;;;18.85;10.23;;;10.00;99.90;;;;;;5072946;28;20146;-69
2024/02/10 03:12:58;;;;;;;16.70;10.45;;;10.00;99.90;;;;;;5072996;28;20025;-69
2024/02/10 03:15:25;;;;;;;11.55;8.75;;;9.90;99.90;;;;;;5072939;28;20040;-69
2024/02/10 03:17:51;;;;;;;15.27;9.70;;;9.80;99.90;;;;;;5072942;28;20025;-69
2024/02/10 03:20:21;;;;;;;14.60;9.70;;;9.80;99.90;;;;;;5072717;28;20500;-69
2024/02/10 03:22:53;;;;;;;14.40;9.13;;;9.70;99.90;;;;;;5072881;28;20539;-69
2024/02/10 03:25:21;;;;;;;13.80;7.85;;;9.60;99.90;;;;;;5072615;28;20104;-69
2024/02/10 03:27:46;;;;;;;10.15;7.78;;;9.50;99.90;;;;;;5072824;28;20437;-69
2024/02/10 03:30:15;;;;;;;12.88;7.80;;;9.40;99.90;;;;;;5072650;28;20027;-69
2024/02/10 03:32:42;;;;;;;12.77;7.68;;;9.40;99.90;;;;;;5072781;28;20074;-68
2024/02/10 03:35:08;;;;;;;14.63;9.35;;;9.30;99.90;;;;;;5072591;28;20032;-68
2024/02/10 03:37:35;;;;;;;15.07;10.27;;;9.30;99.90;;;;;;5072670;28;20028;-68
2024/02/10 03:40:08;;;;;;;21.98;12.10;;;9.40;99.90;;;;;;5072750;28;20047;-67
2024/02/10 03:42:33;;;;;;;20.75;11.63;;;9.40;99.90;;;;;;5072614;28;20036;-68
2024/02/10 03:44:59;;;;;;;17.02;10.68;;;9.50;99.90;;;;;;5072274;28;20049;-68
2024/02/10 03:47:25;;;;;;;20.42;12.43;;;9.50;99.90;;;;;;5073495;28;20111;-68
2024/02/10 03:49:51;;;;;;;18.40;12.38;;;9.50;99.90;;;;;;5075906;28;20024;-68
2024/02/10 03:52:16;;;;;;;19.23;12.10;;;9.50;99.90;;;;;;5076216;28;20453;-68
2024/02/10 03:54:42;;;;;;;17.25;12.35;;;9.50;99.90;;;;;;5076224;28;20055;-68
2024/02/10 03:57:07;;;;;;;22.20;12.95;;;9.50;99.90;;;;;;5076048;28;20033;-68
2024/02/10 03:59:35;;;;;;;19.58;12.52;;;9.40;99.90;;;;;;5076173;28;20101;-68
2024/02/10 04:02:01;;;;;;;20.30;12.38;;;9.30;99.90;;;;;;5076046;28;20032;-68
2024/02/10 04:04:28;;;;;;;19.25;11.95;;;9.30;99.90;;;;;;5075896;28;20151;-68
2024/02/10 04:06:53;;;;;;;17.65;11.93;;;9.20;99.90;;;;;;5075995;28;20020;-68
2024/02/10 04:09:21;;;;;;;18.98;11.48;;;9.20;99.90;;;;;;5075941;28;20024;-68
2024/02/10 04:11:46;;;;;;;18.73;12.05;;;9.10;99.90;;;;;;5075732;28;20029;-68
2024/02/10 04:14:20;;;;;;;17.13;11.65;;;9.10;99.90;;;;;;5075702;28;20107;-68
2024/02/10 04:16:52;;;;;;;18.50;12.77;;;9.10;99.90;;;;;;5075654;28;20032;-68
2024/02/10 04:19:19;;;;;;;21.00;13.23;;;9.10;99.90;;;;;;5075832;28;20526;-68
2024/02/10 04:21:46;;;;;;;20.08;12.32;;;9.10;99.90;;;;;;5075598;28;20028;-68
2024/02/10 04:24:16;;;;;;;22.35;13.40;;;9.10;99.90;;;;;;5075485;28;20108;-68
2024/02/10 04:26:43;;;;;;;24.73;14.15;;;9.10;99.90;;;;;;5075516;28;20044;-68
2024/02/10 04:29:08;;;;;;;24.60;14.23;;;9.10;99.90;;;;;;5075674;28;20025;-68
2024/02/10 04:31:39;;;;;;;22.80;13.50;;;9.00;99.90;;;;;;5075252;28;20394;-68
2024/02/10 04:34:05;;;;;;;23.50;12.98;;;9.00;99.90;;;;;;5075543;28;20062;-68
2024/02/10 04:36:31;;;;;;;21.42;12.90;;;9.00;99.90;;;;;;5075371;28;20111;-68
2024/02/10 04:38:57;;;;;;;19.65;12.68;;;9.00;99.90;;;;;;5075173;28;20394;-68
2024/02/10 04:41:23;;;;;;;19.45;13.05;;;9.10;99.90;;;;;;5075202;28;20025;-68
2024/02/10 04:43:48;;;;;;;19.35;12.40;;;9.00;99.90;;;;;;5074954;28;20041;-68
2024/02/10 04:46:16;;;;;;;20.00;12.85;;;9.00;99.90;;;;;;5075062;28;20036;-68
2024/02/10 04:48:43;;;;;;;19.30;11.80;;;9.00;99.90;;;;;;5075098;28;20134;-68
2024/02/10 04:51:08;;;;;;;19.80;12.35;;;9.00;99.90;;;;;;5075053;28;20024;-68
2024/02/10 04:53:34;;;;;;;16.70;11.40;;;9.00;99.90;;;;;;5074918;28;20029;-68
2024/02/10 04:56:00;;;;;;;22.38;11.95;;;9.00;99.90;;;;;;5075188;28;20136;-68
2024/02/10 04:58:25;;;;;;;17.73;11.25;;;9.00;99.90;;;;;;5074461;28;20028;-68
2024/02/10 05:00:51;;;;;;;17.50;10.48;;;9.00;99.90;;;;;;5074791;28;20380;-68
2024/02/10 05:03:16;;;;;;;15.55;10.02;;;9.10;99.90;;;;;;5074947;28;20056;-68
2024/02/10 05:05:42;;;;;;;14.60;10.30;;;9.10;99.90;;;;;;5074692;28;20401;-68
2024/02/10 05:08:12;;;;;;;16.50;10.00;;;9.20;99.90;;;;;;5074710;28;20030;-68
2024/02/10 05:10:39;;;;;;;14.48;10.40;;;9.20;99.90;;;;;;5074609;28;20104;-69
2024/02/10 05:13:04;;;;;;;16.60;9.75;;;9.20;99.90;;;;;;5074592;28;20024;-68
2024/02/10 05:15:31;;;;;;;16.38;9.48;;;9.20;99.90;;;;;;5074546;28;20035;-68
2024/02/10 05:18:04;;;;;;;12.50;8.52;;;9.20;99.90;;;;;;5074465;28;20028;-68
2024/02/10 05:20:30;;;;;;;;;;;9.20;99.90;;;;;;5075021;28;20101;-68
2024/02/10 05:22:58;;;;;;;12.80;8.88;;;9.20;99.90;;;;;;5074383;28;19908;-68
2024/02/10 05:25:27;;;;;;;12.85;8.70;;;9.20;99.90;;;;;;5074149;28;20116;-68
2024/02/10 05:27:54;;;;;;;11.88;8.73;;;9.20;99.90;;;;;;5072927;28;20479;-68
2024/02/10 05:30:21;;;;;;;12.95;9.07;;;9.30;99.90;;;;;;5074158;28;20098;-68
2024/02/10 05:32:47;;;;;;;13.45;8.57;;;9.30;99.90;;;;;;5074207;28;20028;-69
2024/02/10 05:35:18;;;;;;;12.43;8.07;;;9.30;99.90;;;;;;5074081;28;20033;-68
2024/02/10 05:37:45;;;;;;;9.98;7.60;;;9.30;99.90;;;;;;5074142;28;20040;-68
2024/02/10 05:40:12;;;;;;;10.57;7.32;;;9.30;99.90;;;;;;5072922;28;20033;-69
2024/02/10 05:42:37;;;;;;;9.40;6.95;;;9.30;99.90;;;;;;5073784;28;20486;-68
2024/02/10 05:45:06;;;;;;;8.40;6.88;;;9.30;99.90;;;;;;5073410;28;20106;-68
2024/02/10 05:47:34;;;;;;;9.80;6.85;;;9.40;99.90;;;;;;5074018;28;20024;-68
2024/02/10 05:50:05;;;;;;;12.15;7.30;;;9.40;99.90;;;;;;5073730;28;20055;-68
2024/02/10 05:52:34;;;;;;;14.45;7.45;;;9.40;99.90;;;;;;5073703;28;20020;-68
2024/02/10 05:55:01;;;;;;;12.55;7.53;;;9.40;99.90;;;;;;5073594;28;20033;-69
2024/02/10 05:57:27;;;;;;;9.98;6.97;;;9.40;99.90;;;;;;5073967;28;20035;-70
2024/02/10 05:59:52;;;;;;;10.98;7.50;;;9.30;99.90;;;;;;5073814;28;20028;-68
2024/02/10 06:02:21;;;;;;;11.43;7.93;;;9.30;99.90;;;;;;5073692;28;20047;-68
2024/02/10 06:04:50;;;;;;;15.10;8.93;;;9.30;99.90;;;;;;5073499;28;20024;-69
2024/02/10 06:07:18;;;;;;;11.45;8.60;;;9.30;99.90;;;;;;5073465;28;20024;-68
2024/02/10 06:09:44;;;;;;;10.35;7.85;;;9.30;99.90;;;;;;5072082;28;20024;-68
2024/02/10 06:12:10;;;;;;;10.27;8.05;;;9.30;99.90;;;;;;5073388;28;20025;-69
2024/02/10 06:14:37;;;;;;;10.45;8.15;;;9.20;99.90;;;;;;5072474;28;20401;-68
2024/02/10 06:17:03;;;;;;;10.15;7.65;;;9.20;99.90;;;;;;5073421;28;20049;-68
2024/02/10 06:19:29;;;;;;;9.05;7.38;;;9.10;99.90;;;;;;5073614;28;20417;-68
2024/02/10 06:21:55;;;;;;;10.40;7.72;;;9.00;99.90;;;;;;5073452;28;20031;-68
2024/02/10 06:24:20;;;;;;;10.80;8.15;;;9.00;99.90;;;;;;5073199;28;20032;-67
2024/02/10 06:26:48;;;;;;;10.57;7.35;;;9.00;99.90;;;;;;5073218;28;20039;-67
2024/02/10 06:29:15;;;;;;;10.15;7.35;;;8.90;99.90;;;;;;5073156;28;20020;-67
2024/02/10 06:31:42;;;;;;;11.82;8.18;;;8.80;99.90;;;;;;5073174;28;20103;-67
2024/02/10 06:34:08;;;;;;;11.82;8.70;;;8.80;99.90;;;;;;5073235;28;20390;-67
2024/02/10 06:36:34;;;;;;;11.35;8.93;;;8.70;99.90;;;;;;5073247;28;20021;-67
2024/02/10 06:39:00;;;;;;;13.00;8.52;;;8.70;99.90;;;;;;5073098;28;20025;-68
2024/02/10 06:41:27;;;;;;;13.10;8.30;;;8.70;99.90;;;;;;5073198;28;20496;-67
2024/02/10 06:43:53;;;;;;;15.18;8.88;;;8.60;99.90;;;;;;5072918;28;20493;-68
2024/02/10 06:46:19;;;;;;;13.02;8.57;;;8.60;99.90;;;;;;5072941;28;20119;-68
2024/02/10 06:48:46;;;;;;;12.57;7.72;;;8.60;99.90;;;;;;5073097;28;20048;-68
2024/02/10 06:51:12;;;;;;;16.85;8.35;;;8.60;99.90;;;;;;5073202;28;20028;-68
2024/02/10 06:53:38;;;;;;;12.48;7.90;;;8.50;99.90;;;;;;5073179;28;20029;-68
2024/02/10 06:56:04;;;;;;;12.45;8.30;;;8.50;99.90;;;;;;5072978;28;20020;-68
2024/02/10 06:58:30;;;;;;;13.95;8.55;;;8.40;99.90;;;;;;5073010;28;20051;-68
2024/02/10 07:00:58;;;;;;;12.48;8.02;;;8.40;99.90;;;;;;5072918;28;20160;-68
2024/02/10 07:03:23;;;;;;;13.23;8.98;;;8.30;99.90;;;;;;5073129;28;20032;-68
2024/02/10 07:05:49;;;;;;;15.68;10.18;;;8.40;99.90;;;;;;5072813;28;20074;-68
2024/02/10 07:08:16;;;;;;;13.40;9.93;;;8.50;99.90;;;;;;5072857;28;20028;-68
2024/02/10 07:10:46;;;;;;;16.70;10.05;;;8.60;99.90;;;;;;5072883;28;20017;-68
2024/02/10 07:13:11;;;;;;;20.70;11.27;;;8.70;99.90;;;;;;5072858;28;20036;-68
2024/02/10 07:15:37;;;;;;;15.70;10.63;;;8.70;99.90;;;;;;5072780;28;20107;-68
2024/02/10 07:18:06;;;;;;;17.98;10.57;;;8.80;99.90;;;;;;5072844;28;20032;-68
2024/02/10 07:20:33;;;;;;;14.82;9.88;;;8.90;99.90;;;;;;5072818;28;20032;-68
2024/02/10 07:23:00;;;;;;;16.48;10.60;;;8.90;99.90;;;;;;5076418;28;20039;-68
2024/02/10 07:25:26;;;;;;;13.88;9.40;;;9.00;99.90;;;;;;5076515;28;20025;-69
2024/02/10 07:27:53;;;;;;;16.25;10.48;;;9.20;99.90;;;;;;5076582;28;20082;-68
2024/02/10 07:30:19;;;;;;;14.35;9.55;;;9.70;99.90;;;;;;5075270;28;20036;-68
2024/02/10 07:32:47;;;;;;;15.60;9.70;;;10.30;99.90;;;;;;5075331;28;20433;-68
2024/02/10 07:35:13;;;;;;;13.43;9.23;;;10.80;99.90;;;;;;5076465;28;20037;-69
2024/02/10 07:37:39;;;;;;;11.60;8.65;;;11.40;99.90;;;;;;5076383;28;20486;-69
2024/02/10 07:40:07;;;;;;;11.93;7.88;;;11.90;99.90;;;;;;5075083;28;20074;-69
2024/02/10 07:42:34;;;;;;;10.65;7.82;;;12.10;99.90;;;;;;5076457;28;20056;-69
2024/02/10 07:45:00;;;;;;;10.18;7.50;;;12.40;99.90;;;;;;5076117;28;20045;-70
2024/02/10 07:47:26;;;;;;;9.85;7.00;;;12.70;99.90;;;;;;5076366;28;20501;-69
2024/02/10 07:49:52;;;;;;;8.10;5.55;;;13.10;99.90;;;;;;5076129;28;20020;-69
2024/02/10 07:52:19;;;;;;;6.43;5.00;;;13.00;99.90;;;;;;5076363;28;20027;-69
2024/02/10 07:54:46;;;;;;;6.30;4.80;;;13.20;99.90;;;;;;5076205;28;20440;-69
2024/02/10 07:57:19;;;;;;;5.60;4.18;;;13.90;99.90;;;;;;5076294;28;20028;-70
2024/02/10 07:59:54;;;;;;;4.93;4.10;;;14.40;99.90;;;;;;5076207;28;20039;-69
2024/02/10 08:02:23;;;;;;;5.60;3.78;;;14.50;99.90;;;;;;5076128;28;20032;-69
2024/02/10 08:04:54;;;;;;;3.80;3.33;;;15.10;99.90;;;;;;5076033;28;20497;-70
2024/02/10 08:07:21;;;;;;;4.15;3.17;;;16.00;99.90;;;;;;5075873;28;20475;-70
2024/02/10 08:09:47;;;;;;;4.00;2.75;;;16.90;99.90;;;;;;5075866;28;20511;-70
2024/02/10 08:12:20;;;;;;;4.25;3.83;;;17.60;99.90;;;;;;5075802;28;20020;-70
2024/02/10 08:14:50;;;;;;;;;;;17.20;99.90;;;;;;5075308;28;20028;-70
2024/02/10 08:17:17;;;;;;;6.25;3.60;;;16.60;99.90;;;;;;5075650;28;20294;-70
2024/02/10 08:19:43;;;;;;;4.63;3.78;;;17.30;35.00;;;;;;5075553;28;20036;-70
2024/02/10 08:22:11;;;;;;;5.03;3.70;;;17.10;1.00;;;;;;5075325;28;20028;-70
2024/02/10 08:24:38;;;;;;;7.18;3.80;;;17.50;1.00;;;;;;5075607;28;20039;-70
2024/02/10 08:27:07;;;;;;;10.13;4.30;;;17.30;1.00;;;;;;5075579;28;20093;-69
2024/02/10 08:29:34;;;;;;;8.30;3.65;;;17.20;1.00;;;;;;5075509;28;20056;-70
2024/02/10 08:32:02;;;;;;;4.30;3.25;;;16.60;1.00;;;;;;5075739;28;20032;-70
2024/02/10 08:34:31;;;;;;;4.07;3.10;;;16.40;1.00;;;;;;5074773;28;20104;-70
2024/02/10 08:36:57;;;;;;;5.38;2.78;;;16.60;1.00;;;;;;5075321;28;20110;-70
2024/02/10 08:39:23;;;;;;;4.28;3.00;;;17.20;1.00;;;;;;5075304;28;20172;-70
2024/02/10 08:41:48;;;;;;;4.80;3.28;;;17.60;1.00;;;;;;5075109;28;20040;-70
2024/02/10 08:44:14;;;;;;;3.72;3.10;;;17.70;1.00;;;;;;5075189;28;20044;-70
2024/02/10 08:46:42;;;;;;;3.75;3.10;;;17.70;99.90;;;;;;5075327;28;20028;-70
2024/02/10 08:49:11;;;;;;;5.45;3.47;;;17.20;1.00;;;;;;5075189;28;20524;-70
2024/02/10 08:51:37;;;;;;;6.03;3.25;;;17.50;99.90;;;;;;5075089;28;20025;-69
2024/02/10 08:54:07;;;;;;;6.30;3.85;;;17.80;99.90;;;;;;5075152;28;20032;-70
2024/02/10 08:56:38;;;;;;;5.45;3.28;;;18.00;99.90;;;;;;5075043;28;20082;-70
2024/02/10 08:59:05;;;;;;;6.43;3.95;;;18.40;99.90;;;;;;5075125;28;20519;-70
2024/02/10 09:01:31;;;;;;;5.00;3.45;;;18.10;99.90;;;;;;5075187;28;20025;-70
2024/02/10 09:03:57;;;;;;;3.63;2.80;;;18.30;99.90;;;;;;5074796;28;20550;-70
2024/02/10 09:06:23;;;;;;;16.73;4.18;;;18.40;98.90;;;;;;5074624;28;20528;-70
2024/02/10 09:08:50;;;;;;;3.95;3.00;;;19.30;99.90;;;;;;5075007;28;20020;-70
2024/02/10 09:11:17;;;;;;;3.85;2.50;;;18.60;99.90;;;;;;5074822;28;20032;-70
2024/02/10 09:13:45;;;;;;;4.82;4.13;;;18.00;99.90;;;;;;5074641;28;20035;-70
2024/02/10 09:16:12;;;;;;;4.50;3.65;;;17.80;99.90;;;;;;5074563;28;20028;-70
2024/02/10 09:18:39;;;;;;;11.15;9.25;;;17.40;99.90;;;;;;5074284;28;20024;-70
2024/02/10 09:21:05;;;;;;;3.33;3.03;;;17.40;99.90;;;;;;5074772;28;20020;-70
2024/02/10 09:23:30;;;;;;;2.50;2.33;;;17.80;99.90;;;;;;5074580;28;20025;-70
2024/02/10 09:25:57;;;;;;;2.70;2.50;;;18.20;1.00;;;;;;5074226;28;20036;-70
2024/02/10 09:28:24;;;;;;;4.53;2.60;;;18.60;99.90;;;;;;5074086;28;20029;-71
2024/02/10 09:30:49;;;;;;;3.15;2.40;;;19.30;34.80;;;;;;5074265;28;20338;-70
2024/02/10 09:33:21;;;;;;;3.40;2.55;;;19.00;1.00;;;;;;5074192;28;20104;-70
2024/02/10 09:35:48;;;;;;;2.70;2.50;;;19.40;1.00;;;;;;5074338;28;20107;-71
2024/02/10 09:38:15;;;;;;;3.28;2.53;;;19.70;1.00;;;;;;5074282;28;20033;-71
2024/02/10 09:40:42;;;;;;;3.30;2.28;;;19.90;25.40;;;;;;5074135;28;20025;-70
2024/02/10 09:43:09;;;;;;;4.03;2.72;;;19.80;99.90;;;;;;5073799;28;20036;-70
2024/02/10 09:45:41;;;;;;;3.35;2.85;;;19.60;99.90;;;;;;5072939;28;20029;-70
2024/02/10 09:48:09;;;;;;;2.80;2.37;;;19.80;99.90;;;;;;5073957;28;20479;-70
2024/02/10 09:50:35;;;;;;;4.13;2.50;;;19.80;1.00;;;;;;5073979;28;20039;-70
2024/02/10 09:53:02;;;;;;;2.40;2.20;;;19.50;99.90;;;;;;5073852;28;20024;-70
2024/02/10 09:55:28;;;;;;;2.60;2.40;;;20.20;1.00;;;;;;5073684;28;20020;-70
2024/02/10 09:57:55;;;;;;;2.30;2.10;;;19.80;31.60;;;;;;5073712;28;20116;-71
2024/02/10 10:00:21;;;;;;;4.30;2.08;;;19.60;1.00;;;;;;5073727;28;20033;-70
2024/02/10 10:02:50;;;;;;;2.67;2.30;;;19.40;99.90;;;;;;5073660;28;20119;-70
2024/02/10 10:05:19;;;;;;;2.58;2.38;;;19.30;86.60;;;;;;5073526;28;20115;-70
2024/02/10 10:07:47;;;;;;;5.72;2.58;;;20.00;99.90;;;;;;5073485;28;20021;-70
2024/02/10 10:10:13;;;;;;;2.05;1.85;;;20.00;1.00;;;;;;5073687;28;20063;-70
2024/02/10 10:12:39;;;;;;;3.45;2.45;;;19.70;99.90;;;;;;5073410;28;20028;-70
2024/02/10 10:15:04;;;;;;;2.25;2.15;;;20.00;1.00;;;;;;5073567;28;20553;-70
2024/02/10 10:17:36;;;;;;;2.95;1.90;;;19.90;99.90;;;;;;5073548;28;20037;-70
2024/02/10 10:20:09;;;;;;;2.72;1.90;;;19.90;99.90;;;;;;5072396;28;20025;-70
2024/02/10 10:22:35;;;;;;;;;;;19.50;1.00;;;;;;5074062;28;20111;-70
2024/02/10 10:25:02;;;;;;;2.50;1.88;;;19.50;99.90;;;;;;5073142;28;20434;-70
2024/02/10 10:27:29;;;;;;;2.00;1.90;;;19.50;24.60;;;;;;5073503;28;20052;-70
2024/02/10 10:29:55;;;;;;;2.10;1.92;;;19.70;99.90;;;;;;5073237;28;20085;-70
2024/02/10 10:32:22;;;;;;;2.10;1.98;;;19.50;1.00;;;;;;5073181;28;20051;-70
2024/02/10 10:34:48;;;;;;;2.35;1.60;;;18.80;1.00;;;;;;5073202;28;20032;-70
2024/02/10 10:37:16;;;;;;;1.75;1.63;;;18.70;96.30;;;;;;5073209;28;20107;-70
2024/02/10 10:39:45;;;;;;;1.50;1.40;;;18.60;99.90;;;;;;5073172;28;20031;-70
2024/02/10 10:42:16;;;;;;;1.65;1.50;;;18.20;99.90;;;;;;5073114;28;20094;-70
2024/02/10 10:44:42;;;;;;;1.65;1.55;;;17.60;1.00;;;;;;5072855;28;20048;-70
2024/02/10 10:47:10;;;;;;;2.40;1.75;;;17.10;99.90;;;;;;5072234;28;20020;-70
2024/02/10 10:49:36;;;;;;;2.90;2.08;;;17.10;99.90;;;;;;5071924;28;20027;-70
2024/02/10 10:52:03;;;;;;;2.85;2.17;;;17.30;99.90;;;;;;5073286;28;20028;-70
2024/02/10 10:54:38;;;;;;;1.70;1.60;;;17.20;99.90;;;;;;5072904;28;20024;-70
2024/02/10 10:57:15;;;;;;;1.77;1.63;;;17.20;59.20;;;;;;5072870;28;20387;-72
2024/02/10 10:59:44;;;;;;;2.17;1.48;;;16.90;99.90;;;;;;5072780;28;20153;-70
2024/02/10 11:02:12;;;;;;;1.77;1.63;;;17.00;99.90;;;;;;5072972;28;20031;-72
2024/02/10 11:04:38;;;;;;;1.35;1.23;;;17.10;99.90;;;;;;5072957;28;20029;-70
2024/02/10 11:07:09;;;;;;;1.88;1.70;;;17.10;99.90;;;;;;5073028;28;20070;-70
2024/02/10 11:09:44;;;;;;;1.50;1.40;;;17.20;1.00;;;;;;5071912;28;20370;-70
2024/02/10 11:12:15;;;;;;;1.02;1.02;;;17.20;99.90;;;;;;5072830;28;20447;-70
2024/02/10 11:14:51;;;;;;;1.50;1.40;;;17.50;1.00;;;;;;5072964;28;20078;-70
2024/02/10 11:17:17;;;;;;;2.28;1.40;;;18.00;99.90;;;;;;5072542;28;20028;-70
2024/02/10 11:19:58;;;;;;;1.92;1.15;;;17.90;99.90;;;;;;5072829;28;20044;-72
2024/02/10 11:22:26;;;;;;;1.02;1.02;;;17.70;13.80;;;;;;5072386;28;20028;-70
2024/02/10 11:24:54;;;;;;;1.33;1.20;;;17.90;1.00;;;;;;5072661;28;20101;-70
2024/02/10 11:27:20;;;;;;;1.67;1.55;;;17.50;99.90;;;;;;5072683;28;20029;-70
2024/02/10 11:29:46;;;;;;;1.13;1.10;;;17.30;99.90;;;;;;5072928;28;20078;-70
2024/02/10 11:32:12;;;;;;;1.70;1.02;;;17.50;99.90;;;;;;5072640;28;20432;-71
2024/02/10 11:34:38;;;;;;;3.05;1.33;;;17.30;1.00;;;;;;5072736;28;20048;-70
2024/02/10 11:37:04;;;;;;;1.30;1.10;;;17.00;99.90;;;;;;5072749;28;20075;-70
2024/02/10 11:39:32;;;;;;;3.13;1.33;;;17.10;29.60;;;;;;5072479;28;20031;-70
2024/02/10 11:42:00;;;;;;;1.10;1.00;;;17.00;99.90;;;;;;5072501;28;20500;-70
2024/02/10 11:44:28;;;;;;;2.95;1.20;;;17.00;99.90;;;;;;5072229;28;20071;-70
2024/02/10 11:46:56;;;;;;;1.02;1.02;;;16.80;99.90;;;;;;5072247;28;20103;-70
2024/02/10 11:49:23;;;;;;;1.17;1.00;;;16.80;99.90;;;;;;5072717;28;20368;-70
2024/02/10 11:51:56;;;;;;;1.00;1.00;;;16.90;99.90;;;;;;5072219;28;20048;-71
2024/02/10 11:54:23;;;;;;;13.95;3.40;;;16.50;99.90;;;;;;5072454;28;20368;-70
2024/02/10 11:56:50;;;;;;;3.10;1.63;;;16.30;99.90;;;;;;5072351;28;20107;-70
2024/02/10 11:59:16;;;;;;;2.00;1.70;;;16.30;99.90;;;;;;5072406;28;20027;-70
2024/02/10 12:01:42;;;;;;;2.17;1.98;;;16.10;99.90;;;;;;5072243;28;20040;-70
2024/02/10 12:04:17;;;;;;;3.65;1.70;;;16.20;99.90;;;;;;5072336;28;20029;-70
2024/02/10 12:06:43;;;;;;;2.35;1.52;;;16.10;99.90;;;;;;5072549;28;20474;-69
2024/02/10 12:09:10;;;;;;;1.95;1.48;;;16.10;99.90;;;;;;5074219;28;20073;-69
2024/02/10 12:11:36;;;;;;;1.60;1.50;;;16.20;99.90;;;;;;5075911;28;20210;-70
2024/02/10 12:14:02;;;;;;;2.03;1.35;;;16.30;99.90;;;;;;5075849;28;20032;-70
2024/02/10 12:16:29;;;;;;;2.22;1.23;;;16.30;99.90;;;;;;5075621;28;20077;-70
2024/02/10 12:18:55;;;;;;;3.05;1.17;;;16.10;1.00;;;;;;5075752;28;20518;-70
2024/02/10 12:21:24;;;;;;;1.40;1.25;;;15.90;1.00;;;;;;5075659;28;20029;-70
2024/02/10 12:23:50;;;;;;;2.92;1.50;;;16.00;99.90;;;;;;5075490;28;20032;-71
2024/02/10 12:26:17;;;;;;;2.13;1.30;;;16.10;99.90;;;;;;5075199;28;20028;-70
2024/02/10 12:28:43;;;;;;;1.27;1.17;;;15.80;99.90;;;;;;5075484;28;20028;-71
2024/02/10 12:31:09;;;;;;;0.93;0.85;;;15.50;1.00;;;;;;5075492;28;20363;-70
2024/02/10 12:33:34;;;;;;;1.10;1.00;;;15.30;1.00;;;;;;5075275;28;20032;-70
2024/02/10 12:36:01;;;;;;;1.35;1.10;;;15.10;1.00;;;;;;5075585;28;20036;-70
2024/02/10 12:38:27;;;;;;;1.20;1.10;;;15.10;1.00;;;;;;5075305;28;20028;-70
2024/02/10 12:40:53;;;;;;;1.27;1.17;;;14.80;1.00;;;;;;5075503;28;20021;-71
2024/02/10 12:43:21;;;;;;;1.65;1.20;;;14.90;1.00;;;;;;5074897;28;20183;-70